sensor_id;sensor_type;location;lat;lon;timestamp;P1;durP1;ratioP1;P2;durP2;ratioP2
63536;SDS011;49686;51.880;5.632;2024-01-07T00:00:17;25.13;;;13.13;;
63536;SDS011;49686;51.880;5.632;2024-01-07T00:02:45;24.80;;;12.05;;
63536;SDS011;49686;51.880;5.632;2024-01-07T00:05:12;26.60;;;12.57;;
63536;SDS011;49686;51.880;5.632;2024-01-07T00:07:39;25.63;;;12.45;;
63536;SDS011;49686;51.880;5.632;2024-01-07T00:10:06;23.45;;;11.48;;
63536;SDS011;49686;51.880;5.632;2024-01-07T00:12:33;22.95;;;11.65;;
63536;SDS011;49686;51.880;5.632;2024-01-07T00:15:00;26.65;;;13.00;;
63536;SDS011;49686;51.880;5.632;2024-01-07T00:17:28;29.77;;;14.13;;
63536;SDS011;49686;51.880;5.632;2024-01-07T00:19:56;29.42;;;14.50;;
63536;SDS011;49686;51.880;5.632;2024-01-07T00:22:23;21.15;;;11.07;;
63536;SDS011;49686;51.880;5.632;2024-01-07T00:24:50;27.17;;;13.70;;
63536;SDS011;49686;51.880;5.632;2024-01-07T00:27:17;28.40;;;13.60;;
63536;SDS011;49686;51.880;5.632;2024-01-07T00:29:44;22.88;;;12.13;;
63536;SDS011;49686;51.880;5.632;2024-01-07T00:32:11;27.60;;;14.07;;
63536;SDS011;49686;51.880;5.632;2024-01-07T00:34:38;23.95;;;11.98;;
63536;SDS011;49686;51.880;5.632;2024-01-07T00:37:09;23.88;;;12.38;;
63536;SDS011;49686;51.880;5.632;2024-01-07T00:39:36;27.00;;;12.25;;
63536;SDS011;49686;51.880;5.632;2024-01-07T00:42:03;25.40;;;12.52;;
63536;SDS011;49686;51.880;5.632;2024-01-07T00:44:30;27.33;;;13.45;;
63536;SDS011;49686;51.880;5.632;2024-01-07T00:46:56;25.13;;;11.85;;
63536;SDS011;49686;51.880;5.632;2024-01-07T00:49:23;29.50;;;13.00;;
63536;SDS011;49686;51.880;5.632;2024-01-07T00:51:50;28.50;;;13.88;;
63536;SDS011;49686;51.880;5.632;2024-01-07T00:54:21;28.35;;;13.13;;
63536;SDS011;49686;51.880;5.632;2024-01-07T00:56:48;23.98;;;12.40;;
63536;SDS011;49686;51.880;5.632;2024-01-07T00:59:15;25.70;;;12.55;;
63536;SDS011;49686;51.880;5.632;2024-01-07T01:01:41;29.55;;;13.20;;
63536;SDS011;49686;51.880;5.632;2024-01-07T01:04:09;26.77;;;12.88;;
63536;SDS011;49686;51.880;5.632;2024-01-07T01:06:36;33.00;;;14.40;;
63536;SDS011;49686;51.880;5.632;2024-01-07T01:09:03;32.65;;;14.98;;
63536;SDS011;49686;51.880;5.632;2024-01-07T01:11:31;29.33;;;12.80;;
63536;SDS011;49686;51.880;5.632;2024-01-07T01:13:58;30.35;;;14.73;;
63536;SDS011;49686;51.880;5.632;2024-01-07T01:16:25;31.05;;;13.30;;
63536;SDS011;49686;51.880;5.632;2024-01-07T01:18:52;33.78;;;14.45;;
63536;SDS011;49686;51.880;5.632;2024-01-07T01:21:19;30.95;;;13.98;;
63536;SDS011;49686;51.880;5.632;2024-01-07T01:23:46;35.13;;;15.45;;
63536;SDS011;49686;51.880;5.632;2024-01-07T01:26:13;37.25;;;15.52;;
63536;SDS011;49686;51.880;5.632;2024-01-07T01:28:42;33.45;;;15.40;;
63536;SDS011;49686;51.880;5.632;2024-01-07T01:31:12;39.50;;;17.15;;
63536;SDS011;49686;51.880;5.632;2024-01-07T01:33:39;40.40;;;17.33;;
63536;SDS011;49686;51.880;5.632;2024-01-07T01:36:06;39.95;;;16.38;;
63536;SDS011;49686;51.880;5.632;2024-01-07T01:38:34;37.35;;;16.10;;
63536;SDS011;49686;51.880;5.632;2024-01-07T01:41:01;37.25;;;15.57;;
63536;SDS011;49686;51.880;5.632;2024-01-07T01:43:28;37.28;;;17.13;;
63536;SDS011;49686;51.880;5.632;2024-01-07T01:45:56;37.10;;;14.65;;
63536;SDS011;49686;51.880;5.632;2024-01-07T01:48:24;42.25;;;18.08;;
63536;SDS011;49686;51.880;5.632;2024-01-07T01:50:52;33.22;;;14.82;;
63536;SDS011;49686;51.880;5.632;2024-01-07T01:53:20;33.45;;;14.82;;
63536;SDS011;49686;51.880;5.632;2024-01-07T01:55:47;35.42;;;14.52;;
63536;SDS011;49686;51.880;5.632;2024-01-07T01:58:14;35.58;;;16.40;;
63536;SDS011;49686;51.880;5.632;2024-01-07T02:00:44;30.25;;;14.00;;
63536;SDS011;49686;51.880;5.632;2024-01-07T02:03:12;30.00;;;14.55;;
63536;SDS011;49686;51.880;5.632;2024-01-07T02:05:40;19.38;;;9.80;;
63536;SDS011;49686;51.880;5.632;2024-01-07T02:08:07;38.78;;;16.25;;
63536;SDS011;49686;51.880;5.632;2024-01-07T02:10:34;33.05;;;15.90;;
63536;SDS011;49686;51.880;5.632;2024-01-07T02:13:02;36.25;;;16.42;;
63536;SDS011;49686;51.880;5.632;2024-01-07T02:15:29;31.40;;;13.75;;
63536;SDS011;49686;51.880;5.632;2024-01-07T02:17:56;36.63;;;16.83;;
63536;SDS011;49686;51.880;5.632;2024-01-07T02:20:25;31.33;;;15.20;;
63536;SDS011;49686;51.880;5.632;2024-01-07T02:22:52;36.38;;;16.30;;
63536;SDS011;49686;51.880;5.632;2024-01-07T02:25:20;30.95;;;14.82;;
63536;SDS011;49686;51.880;5.632;2024-01-07T02:27:47;33.40;;;15.10;;
63536;SDS011;49686;51.880;5.632;2024-01-07T02:30:14;33.63;;;15.32;;
63536;SDS011;49686;51.880;5.632;2024-01-07T02:32:42;30.73;;;14.40;;
63536;SDS011;49686;51.880;5.632;2024-01-07T02:35:09;25.50;;;13.50;;
63536;SDS011;49686;51.880;5.632;2024-01-07T02:37:36;25.80;;;12.63;;
63536;SDS011;49686;51.880;5.632;2024-01-07T02:40:03;34.42;;;15.32;;
63536;SDS011;49686;51.880;5.632;2024-01-07T02:42:32;29.95;;;14.77;;
63536;SDS011;49686;51.880;5.632;2024-01-07T02:44:59;34.72;;;15.90;;
63536;SDS011;49686;51.880;5.632;2024-01-07T02:47:26;35.85;;;15.65;;
63536;SDS011;49686;51.880;5.632;2024-01-07T02:49:53;29.45;;;13.52;;
63536;SDS011;49686;51.880;5.632;2024-01-07T02:52:20;35.28;;;15.77;;
63536;SDS011;49686;51.880;5.632;2024-01-07T02:54:47;37.05;;;16.13;;
63536;SDS011;49686;51.880;5.632;2024-01-07T02:57:14;29.05;;;14.25;;
63536;SDS011;49686;51.880;5.632;2024-01-07T02:59:42;31.35;;;13.43;;
63536;SDS011;49686;51.880;5.632;2024-01-07T03:02:09;30.52;;;13.27;;
63536;SDS011;49686;51.880;5.632;2024-01-07T03:04:36;32.42;;;14.52;;
63536;SDS011;49686;51.880;5.632;2024-01-07T03:07:03;29.85;;;13.40;;
63536;SDS011;49686;51.880;5.632;2024-01-07T03:09:30;29.65;;;14.18;;
63536;SDS011;49686;51.880;5.632;2024-01-07T03:11:57;29.67;;;14.35;;
63536;SDS011;49686;51.880;5.632;2024-01-07T03:14:23;32.97;;;14.80;;
63536;SDS011;49686;51.880;5.632;2024-01-07T03:16:52;31.30;;;14.13;;
63536;SDS011;49686;51.880;5.632;2024-01-07T03:19:18;33.17;;;15.15;;
63536;SDS011;49686;51.880;5.632;2024-01-07T03:21:45;29.30;;;14.07;;
63536;SDS011;49686;51.880;5.632;2024-01-07T03:24:14;35.17;;;14.98;;
63536;SDS011;49686;51.880;5.632;2024-01-07T03:26:40;29.58;;;13.68;;
63536;SDS011;49686;51.880;5.632;2024-01-07T03:29:07;34.10;;;14.73;;
63536;SDS011;49686;51.880;5.632;2024-01-07T03:31:34;33.72;;;14.85;;
63536;SDS011;49686;51.880;5.632;2024-01-07T03:34:02;32.83;;;13.82;;
63536;SDS011;49686;51.880;5.632;2024-01-07T03:36:29;38.30;;;16.88;;
63536;SDS011;49686;51.880;5.632;2024-01-07T03:38:56;36.15;;;15.48;;
63536;SDS011;49686;51.880;5.632;2024-01-07T03:41:23;41.13;;;17.38;;
63536;SDS011;49686;51.880;5.632;2024-01-07T03:43:50;34.22;;;15.80;;
63536;SDS011;49686;51.880;5.632;2024-01-07T03:46:17;33.58;;;15.20;;
63536;SDS011;49686;51.880;5.632;2024-01-07T03:48:44;40.38;;;17.80;;
63536;SDS011;49686;51.880;5.632;2024-01-07T03:51:13;33.40;;;16.10;;
63536;SDS011;49686;51.880;5.632;2024-01-07T03:53:40;33.65;;;14.93;;
63536;SDS011;49686;51.880;5.632;2024-01-07T03:56:07;27.10;;;11.95;;
63536;SDS011;49686;51.880;5.632;2024-01-07T03:58:34;29.60;;;13.38;;
63536;SDS011;49686;51.880;5.632;2024-01-07T04:01:01;34.00;;;14.95;;
63536;SDS011;49686;51.880;5.632;2024-01-07T04:03:28;31.02;;;13.73;;
63536;SDS011;49686;51.880;5.632;2024-01-07T04:05:55;29.45;;;13.95;;
63536;SDS011;49686;51.880;5.632;2024-01-07T04:08:24;25.13;;;12.30;;
63536;SDS011;49686;51.880;5.632;2024-01-07T04:10:51;22.52;;;10.70;;
63536;SDS011;49686;51.880;5.632;2024-01-07T04:13:18;26.40;;;12.80;;
63536;SDS011;49686;51.880;5.632;2024-01-07T04:15:44;20.65;;;10.88;;
63536;SDS011;49686;51.880;5.632;2024-01-07T04:18:11;23.02;;;12.07;;
63536;SDS011;49686;51.880;5.632;2024-01-07T04:20:38;21.45;;;11.07;;
63536;SDS011;49686;51.880;5.632;2024-01-07T04:23:05;19.20;;;11.18;;
63536;SDS011;49686;51.880;5.632;2024-01-07T04:25:34;18.67;;;10.38;;
63536;SDS011;49686;51.880;5.632;2024-01-07T04:28:00;20.60;;;10.75;;
63536;SDS011;49686;51.880;5.632;2024-01-07T04:30:27;21.05;;;11.80;;
63536;SDS011;49686;51.880;5.632;2024-01-07T04:32:54;19.00;;;10.10;;
63536;SDS011;49686;51.880;5.632;2024-01-07T04:35:22;17.85;;;9.73;;
63536;SDS011;49686;51.880;5.632;2024-01-07T04:37:49;18.15;;;10.05;;
63536;SDS011;49686;51.880;5.632;2024-01-07T04:40:16;19.00;;;10.23;;
63536;SDS011;49686;51.880;5.632;2024-01-07T04:42:45;24.60;;;12.43;;
63536;SDS011;49686;51.880;5.632;2024-01-07T04:45:12;20.67;;;11.23;;
63536;SDS011;49686;51.880;5.632;2024-01-07T04:47:42;19.90;;;10.55;;
63536;SDS011;49686;51.880;5.632;2024-01-07T04:50:09;16.63;;;8.35;;
63536;SDS011;49686;51.880;5.632;2024-01-07T04:52:36;20.42;;;11.32;;
63536;SDS011;49686;51.880;5.632;2024-01-07T04:55:03;20.75;;;11.85;;
63536;SDS011;49686;51.880;5.632;2024-01-07T04:57:30;19.77;;;11.30;;
63536;SDS011;49686;51.880;5.632;2024-01-07T04:59:59;24.75;;;12.35;;
63536;SDS011;49686;51.880;5.632;2024-01-07T05:02:26;21.10;;;11.80;;
63536;SDS011;49686;51.880;5.632;2024-01-07T05:04:52;25.40;;;13.30;;
63536;SDS011;49686;51.880;5.632;2024-01-07T05:07:19;21.45;;;11.75;;
63536;SDS011;49686;51.880;5.632;2024-01-07T05:09:46;23.30;;;12.05;;
63536;SDS011;49686;51.880;5.632;2024-01-07T05:12:13;21.65;;;12.18;;
63536;SDS011;49686;51.880;5.632;2024-01-07T05:14:41;24.52;;;12.63;;
63536;SDS011;49686;51.880;5.632;2024-01-07T05:17:10;26.25;;;14.68;;
63536;SDS011;49686;51.880;5.632;2024-01-07T05:19:39;20.30;;;11.50;;
63536;SDS011;49686;51.880;5.632;2024-01-07T05:22:06;25.77;;;13.68;;
63536;SDS011;49686;51.880;5.632;2024-01-07T05:24:33;25.23;;;12.27;;
63536;SDS011;49686;51.880;5.632;2024-01-07T05:27:02;26.58;;;14.07;;
63536;SDS011;49686;51.880;5.632;2024-01-07T05:29:29;22.13;;;11.68;;
63536;SDS011;49686;51.880;5.632;2024-01-07T05:31:58;23.10;;;12.90;;
63536;SDS011;49686;51.880;5.632;2024-01-07T05:34:26;25.30;;;13.88;;
63536;SDS011;49686;51.880;5.632;2024-01-07T05:36:54;22.10;;;12.25;;
63536;SDS011;49686;51.880;5.632;2024-01-07T05:39:21;21.02;;;9.52;;
63536;SDS011;49686;51.880;5.632;2024-01-07T05:41:48;20.33;;;12.00;;
63536;SDS011;49686;51.880;5.632;2024-01-07T05:44:15;19.02;;;11.70;;
63536;SDS011;49686;51.880;5.632;2024-01-07T05:46:42;25.40;;;14.25;;
63536;SDS011;49686;51.880;5.632;2024-01-07T05:49:08;19.95;;;12.38;;
63536;SDS011;49686;51.880;5.632;2024-01-07T05:51:39;24.10;;;12.80;;
63536;SDS011;49686;51.880;5.632;2024-01-07T05:54:06;17.95;;;10.73;;
63536;SDS011;49686;51.880;5.632;2024-01-07T05:56:38;18.58;;;10.35;;
63536;SDS011;49686;51.880;5.632;2024-01-07T05:59:05;15.38;;;8.57;;
63536;SDS011;49686;51.880;5.632;2024-01-07T06:01:32;21.45;;;12.00;;
63536;SDS011;49686;51.880;5.632;2024-01-07T06:03:59;22.45;;;13.45;;
63536;SDS011;49686;51.880;5.632;2024-01-07T06:06:27;21.95;;;12.95;;
63536;SDS011;49686;51.880;5.632;2024-01-07T06:08:55;20.30;;;11.20;;
63536;SDS011;49686;51.880;5.632;2024-01-07T06:11:22;22.15;;;12.43;;
63536;SDS011;49686;51.880;5.632;2024-01-07T06:13:49;22.20;;;12.32;;
63536;SDS011;49686;51.880;5.632;2024-01-07T06:16:16;20.38;;;11.65;;
63536;SDS011;49686;51.880;5.632;2024-01-07T06:18:43;21.80;;;13.00;;
63536;SDS011;49686;51.880;5.632;2024-01-07T06:21:10;18.63;;;11.38;;
63536;SDS011;49686;51.880;5.632;2024-01-07T06:23:39;22.65;;;12.98;;
63536;SDS011;49686;51.880;5.632;2024-01-07T06:26:07;20.88;;;12.43;;
63536;SDS011;49686;51.880;5.632;2024-01-07T06:28:34;23.55;;;13.70;;
63536;SDS011;49686;51.880;5.632;2024-01-07T06:31:02;21.60;;;10.95;;
63536;SDS011;49686;51.880;5.632;2024-01-07T06:33:29;22.00;;;13.20;;
63536;SDS011;49686;51.880;5.632;2024-01-07T06:35:56;22.67;;;13.02;;
63536;SDS011;49686;51.880;5.632;2024-01-07T06:38:23;20.15;;;11.90;;
63536;SDS011;49686;51.880;5.632;2024-01-07T06:40:50;20.05;;;11.02;;
63536;SDS011;49686;51.880;5.632;2024-01-07T06:43:18;20.83;;;12.05;;
63536;SDS011;49686;51.880;5.632;2024-01-07T06:45:45;22.08;;;12.77;;
63536;SDS011;49686;51.880;5.632;2024-01-07T06:48:12;19.70;;;11.60;;
63536;SDS011;49686;51.880;5.632;2024-01-07T06:50:39;22.90;;;12.10;;
63536;SDS011;49686;51.880;5.632;2024-01-07T06:53:06;19.42;;;11.10;;
63536;SDS011;49686;51.880;5.632;2024-01-07T06:55:33;19.23;;;11.27;;
63536;SDS011;49686;51.880;5.632;2024-01-07T06:58:00;20.90;;;12.98;;
63536;SDS011;49686;51.880;5.632;2024-01-07T07:00:28;17.08;;;9.50;;
63536;SDS011;49686;51.880;5.632;2024-01-07T07:02:56;18.40;;;11.75;;
63536;SDS011;49686;51.880;5.632;2024-01-07T07:05:22;18.95;;;11.15;;
63536;SDS011;49686;51.880;5.632;2024-01-07T07:07:49;17.25;;;10.00;;
63536;SDS011;49686;51.880;5.632;2024-01-07T07:10:20;17.55;;;9.35;;
63536;SDS011;49686;51.880;5.632;2024-01-07T07:12:48;20.83;;;12.07;;
63536;SDS011;49686;51.880;5.632;2024-01-07T07:15:15;17.02;;;10.90;;
63536;SDS011;49686;51.880;5.632;2024-01-07T07:17:43;17.05;;;10.50;;
63536;SDS011;49686;51.880;5.632;2024-01-07T07:20:10;20.50;;;10.73;;
63536;SDS011;49686;51.880;5.632;2024-01-07T07:22:38;20.27;;;11.20;;
63536;SDS011;49686;51.880;5.632;2024-01-07T07:25:05;19.38;;;11.68;;
63536;SDS011;49686;51.880;5.632;2024-01-07T07:27:32;17.75;;;10.15;;
63536;SDS011;49686;51.880;5.632;2024-01-07T07:29:59;17.83;;;10.57;;
63536;SDS011;49686;51.880;5.632;2024-01-07T07:32:26;19.05;;;11.88;;
63536;SDS011;49686;51.880;5.632;2024-01-07T07:34:54;19.45;;;11.60;;
63536;SDS011;49686;51.880;5.632;2024-01-07T07:37:22;20.08;;;10.80;;
63536;SDS011;49686;51.880;5.632;2024-01-07T07:39:49;18.23;;;10.00;;
63536;SDS011;49686;51.880;5.632;2024-01-07T07:42:16;25.70;;;13.70;;
63536;SDS011;49686;51.880;5.632;2024-01-07T07:44:43;17.98;;;11.55;;
63536;SDS011;49686;51.880;5.632;2024-01-07T07:47:09;21.05;;;13.30;;
63536;SDS011;49686;51.880;5.632;2024-01-07T07:49:36;15.85;;;10.15;;
63536;SDS011;49686;51.880;5.632;2024-01-07T07:52:05;19.08;;;11.57;;
63536;SDS011;49686;51.880;5.632;2024-01-07T07:54:32;19.13;;;11.18;;
63536;SDS011;49686;51.880;5.632;2024-01-07T07:57:01;20.67;;;10.55;;
63536;SDS011;49686;51.880;5.632;2024-01-07T07:59:28;19.73;;;12.13;;
63536;SDS011;49686;51.880;5.632;2024-01-07T08:01:55;18.23;;;10.48;;
63536;SDS011;49686;51.880;5.632;2024-01-07T08:04:22;17.63;;;10.10;;
63536;SDS011;49686;51.880;5.632;2024-01-07T08:06:49;17.70;;;10.98;;
63536;SDS011;49686;51.880;5.632;2024-01-07T08:09:18;14.85;;;8.68;;
63536;SDS011;49686;51.880;5.632;2024-01-07T08:11:45;18.85;;;9.73;;
63536;SDS011;49686;51.880;5.632;2024-01-07T08:14:12;17.63;;;10.90;;
63536;SDS011;49686;51.880;5.632;2024-01-07T08:16:38;19.13;;;10.88;;
63536;SDS011;49686;51.880;5.632;2024-01-07T08:19:05;17.50;;;10.85;;
63536;SDS011;49686;51.880;5.632;2024-01-07T08:21:32;16.63;;;9.90;;
63536;SDS011;49686;51.880;5.632;2024-01-07T08:23:59;16.92;;;10.55;;
63536;SDS011;49686;51.880;5.632;2024-01-07T08:26:28;15.50;;;10.05;;
63536;SDS011;49686;51.880;5.632;2024-01-07T08:28:55;17.85;;;10.88;;
63536;SDS011;49686;51.880;5.632;2024-01-07T08:31:21;20.95;;;11.38;;
63536;SDS011;49686;51.880;5.632;2024-01-07T08:33:49;17.17;;;10.73;;
63536;SDS011;49686;51.880;5.632;2024-01-07T08:36:15;15.25;;;9.18;;
63536;SDS011;49686;51.880;5.632;2024-01-07T08:38:42;15.85;;;10.18;;
63536;SDS011;49686;51.880;5.632;2024-01-07T08:41:09;18.25;;;11.05;;
63536;SDS011;49686;51.880;5.632;2024-01-07T08:43:38;15.10;;;10.05;;
63536;SDS011;49686;51.880;5.632;2024-01-07T08:46:04;19.17;;;10.35;;
63536;SDS011;49686;51.880;5.632;2024-01-07T08:48:31;14.63;;;9.00;;
63536;SDS011;49686;51.880;5.632;2024-01-07T08:50:58;13.75;;;9.02;;
63536;SDS011;49686;51.880;5.632;2024-01-07T08:53:25;11.63;;;7.07;;
63536;SDS011;49686;51.880;5.632;2024-01-07T08:55:52;17.52;;;9.93;;
63536;SDS011;49686;51.880;5.632;2024-01-07T08:58:19;15.18;;;8.65;;
63536;SDS011;49686;51.880;5.632;2024-01-07T09:00:48;11.25;;;7.82;;
63536;SDS011;49686;51.880;5.632;2024-01-07T09:03:15;11.52;;;8.23;;
63536;SDS011;49686;51.880;5.632;2024-01-07T09:05:42;11.15;;;6.65;;
63536;SDS011;49686;51.880;5.632;2024-01-07T09:08:09;12.52;;;8.25;;
63536;SDS011;49686;51.880;5.632;2024-01-07T09:10:35;13.32;;;8.55;;
63536;SDS011;49686;51.880;5.632;2024-01-07T09:13:02;13.27;;;8.30;;
63536;SDS011;49686;51.880;5.632;2024-01-07T09:15:29;13.32;;;8.77;;
63536;SDS011;49686;51.880;5.632;2024-01-07T09:17:58;14.00;;;8.60;;
63536;SDS011;49686;51.880;5.632;2024-01-07T09:20:25;12.93;;;8.38;;
63536;SDS011;49686;51.880;5.632;2024-01-07T09:22:52;13.32;;;8.20;;
63536;SDS011;49686;51.880;5.632;2024-01-07T09:25:19;13.57;;;8.98;;
63536;SDS011;49686;51.880;5.632;2024-01-07T09:27:46;16.83;;;8.98;;
63536;SDS011;49686;51.880;5.632;2024-01-07T09:30:13;15.45;;;8.38;;
63536;SDS011;49686;51.880;5.632;2024-01-07T09:32:40;13.63;;;8.80;;
63536;SDS011;49686;51.880;5.632;2024-01-07T09:35:08;12.82;;;8.57;;
63536;SDS011;49686;51.880;5.632;2024-01-07T09:37:35;12.15;;;8.30;;
63536;SDS011;49686;51.880;5.632;2024-01-07T09:40:04;12.33;;;7.50;;
63536;SDS011;49686;51.880;5.632;2024-01-07T09:42:32;11.75;;;7.55;;
63536;SDS011;49686;51.880;5.632;2024-01-07T09:44:59;12.40;;;7.97;;
63536;SDS011;49686;51.880;5.632;2024-01-07T09:47:28;10.52;;;7.15;;
63536;SDS011;49686;51.880;5.632;2024-01-07T09:49:56;13.02;;;7.22;;
63536;SDS011;49686;51.880;5.632;2024-01-07T09:52:24;13.82;;;8.45;;
63536;SDS011;49686;51.880;5.632;2024-01-07T09:54:58;15.93;;;8.50;;
63536;SDS011;49686;51.880;5.632;2024-01-07T09:57:27;14.15;;;8.52;;
63536;SDS011;49686;51.880;5.632;2024-01-07T09:59:54;15.73;;;9.05;;
63536;SDS011;49686;51.880;5.632;2024-01-07T10:02:21;12.25;;;8.10;;
63536;SDS011;49686;51.880;5.632;2024-01-07T10:04:48;13.02;;;7.45;;
63536;SDS011;49686;51.880;5.632;2024-01-07T10:07:15;11.98;;;7.13;;
63536;SDS011;49686;51.880;5.632;2024-01-07T10:09:46;14.57;;;7.07;;
63536;SDS011;49686;51.880;5.632;2024-01-07T10:12:13;12.40;;;7.15;;
63536;SDS011;49686;51.880;5.632;2024-01-07T10:14:41;13.65;;;8.10;;
63536;SDS011;49686;51.880;5.632;2024-01-07T10:17:15;11.93;;;7.82;;
63536;SDS011;49686;51.880;5.632;2024-01-07T10:19:43;13.65;;;9.00;;
63536;SDS011;49686;51.880;5.632;2024-01-07T10:22:11;10.10;;;6.70;;
63536;SDS011;49686;51.880;5.632;2024-01-07T10:24:39;12.90;;;8.27;;
63536;SDS011;49686;51.880;5.632;2024-01-07T10:27:09;11.75;;;6.82;;
63536;SDS011;49686;51.880;5.632;2024-01-07T10:29:36;12.15;;;7.05;;
63536;SDS011;49686;51.880;5.632;2024-01-07T10:32:03;12.55;;;7.22;;
63536;SDS011;49686;51.880;5.632;2024-01-07T10:34:31;12.05;;;7.32;;
63536;SDS011;49686;51.880;5.632;2024-01-07T10:36:59;8.13;;;5.65;;
63536;SDS011;49686;51.880;5.632;2024-01-07T10:39:26;9.10;;;5.55;;
63536;SDS011;49686;51.880;5.632;2024-01-07T10:41:53;10.50;;;6.10;;
63536;SDS011;49686;51.880;5.632;2024-01-07T10:44:22;10.60;;;6.88;;
63536;SDS011;49686;51.880;5.632;2024-01-07T10:46:52;10.45;;;6.47;;
63536;SDS011;49686;51.880;5.632;2024-01-07T10:49:20;8.57;;;5.35;;
63536;SDS011;49686;51.880;5.632;2024-01-07T10:51:50;10.48;;;6.50;;
63536;SDS011;49686;51.880;5.632;2024-01-07T10:54:28;8.60;;;5.63;;
63536;SDS011;49686;51.880;5.632;2024-01-07T10:56:57;10.88;;;6.68;;
63536;SDS011;49686;51.880;5.632;2024-01-07T10:59:27;10.82;;;6.45;;
63536;SDS011;49686;51.880;5.632;2024-01-07T11:01:55;10.82;;;6.43;;
63536;SDS011;49686;51.880;5.632;2024-01-07T11:04:29;8.25;;;5.03;;
63536;SDS011;49686;51.880;5.632;2024-01-07T11:07:03;8.25;;;5.65;;
63536;SDS011;49686;51.880;5.632;2024-01-07T11:09:39;9.57;;;5.18;;
63536;SDS011;49686;51.880;5.632;2024-01-07T11:12:16;8.10;;;4.97;;
63536;SDS011;49686;51.880;5.632;2024-01-07T11:14:45;7.78;;;5.00;;
63536;SDS011;49686;51.880;5.632;2024-01-07T11:17:12;10.65;;;6.03;;
63536;SDS011;49686;51.880;5.632;2024-01-07T11:19:45;7.22;;;4.90;;
63536;SDS011;49686;51.880;5.632;2024-01-07T11:22:22;7.00;;;4.78;;
63536;SDS011;49686;51.880;5.632;2024-01-07T11:24:50;9.15;;;5.05;;
63536;SDS011;49686;51.880;5.632;2024-01-07T11:27:17;6.47;;;4.72;;
63536;SDS011;49686;51.880;5.632;2024-01-07T11:32:20;9.52;;;5.55;;
63536;SDS011;49686;51.880;5.632;2024-01-07T11:34:48;8.70;;;5.22;;
63536;SDS011;49686;51.880;5.632;2024-01-07T11:37:15;8.50;;;4.97;;
63536;SDS011;49686;51.880;5.632;2024-01-07T11:39:42;6.90;;;4.68;;
63536;SDS011;49686;51.880;5.632;2024-01-07T11:42:10;9.05;;;5.82;;
63536;SDS011;49686;51.880;5.632;2024-01-07T11:44:38;8.10;;;5.55;;
63536;SDS011;49686;51.880;5.632;2024-01-07T11:47:13;6.38;;;4.82;;
63536;SDS011;49686;51.880;5.632;2024-01-07T11:49:40;8.20;;;5.03;;
63536;SDS011;49686;51.880;5.632;2024-01-07T11:52:08;8.75;;;5.70;;
63536;SDS011;49686;51.880;5.632;2024-01-07T11:54:35;8.88;;;5.97;;
63536;SDS011;49686;51.880;5.632;2024-01-07T11:57:02;5.13;;;3.53;;
63536;SDS011;49686;51.880;5.632;2024-01-07T11:59:29;7.55;;;5.07;;
63536;SDS011;49686;51.880;5.632;2024-01-07T12:01:59;6.72;;;5.13;;
63536;SDS011;49686;51.880;5.632;2024-01-07T12:04:28;9.73;;;4.57;;
63536;SDS011;49686;51.880;5.632;2024-01-07T12:06:55;5.07;;;3.70;;
63536;SDS011;49686;51.880;5.632;2024-01-07T12:09:22;5.03;;;3.50;;
63536;SDS011;49686;51.880;5.632;2024-01-07T12:11:49;5.63;;;3.53;;
63536;SDS011;49686;51.880;5.632;2024-01-07T12:14:17;5.55;;;3.80;;
63536;SDS011;49686;51.880;5.632;2024-01-07T12:16:44;4.25;;;3.00;;
63536;SDS011;49686;51.880;5.632;2024-01-07T12:19:12;5.32;;;3.10;;
63536;SDS011;49686;51.880;5.632;2024-01-07T12:21:41;4.75;;;3.08;;
63536;SDS011;49686;51.880;5.632;2024-01-07T12:24:08;5.40;;;3.40;;
63536;SDS011;49686;51.880;5.632;2024-01-07T12:26:35;4.72;;;3.20;;
63536;SDS011;49686;51.880;5.632;2024-01-07T12:29:04;5.30;;;3.55;;
63536;SDS011;49686;51.880;5.632;2024-01-07T12:31:31;4.90;;;2.72;;
63536;SDS011;49686;51.880;5.632;2024-01-07T12:33:59;4.13;;;2.57;;
63536;SDS011;49686;51.880;5.632;2024-01-07T12:36:26;5.07;;;2.33;;
63536;SDS011;49686;51.880;5.632;2024-01-07T12:38:59;4.22;;;2.10;;
63536;SDS011;49686;51.880;5.632;2024-01-07T12:41:26;3.70;;;2.63;;
63536;SDS011;49686;51.880;5.632;2024-01-07T12:43:52;2.60;;;1.98;;
63536;SDS011;49686;51.880;5.632;2024-01-07T12:46:19;2.17;;;1.65;;
63536;SDS011;49686;51.880;5.632;2024-01-07T12:48:47;3.92;;;2.17;;
63536;SDS011;49686;51.880;5.632;2024-01-07T12:51:14;2.10;;;1.60;;
63536;SDS011;49686;51.880;5.632;2024-01-07T12:53:43;3.75;;;2.08;;
63536;SDS011;49686;51.880;5.632;2024-01-07T12:56:11;2.67;;;1.80;;
63536;SDS011;49686;51.880;5.632;2024-01-07T12:58:38;2.55;;;1.95;;
63536;SDS011;49686;51.880;5.632;2024-01-07T13:01:05;4.63;;;2.58;;
63536;SDS011;49686;51.880;5.632;2024-01-07T13:03:32;3.95;;;2.20;;
63536;SDS011;49686;51.880;5.632;2024-01-07T13:05:59;3.40;;;2.17;;
63536;SDS011;49686;51.880;5.632;2024-01-07T13:08:26;3.55;;;2.70;;
63536;SDS011;49686;51.880;5.632;2024-01-07T13:10:53;3.05;;;2.08;;
63536;SDS011;49686;51.880;5.632;2024-01-07T13:13:22;4.25;;;1.80;;
63536;SDS011;49686;51.880;5.632;2024-01-07T13:15:52;2.60;;;1.83;;
63536;SDS011;49686;51.880;5.632;2024-01-07T13:18:19;2.72;;;2.03;;
63536;SDS011;49686;51.880;5.632;2024-01-07T13:20:46;3.72;;;1.77;;
63536;SDS011;49686;51.880;5.632;2024-01-07T13:23:15;5.45;;;2.17;;
63536;SDS011;49686;51.880;5.632;2024-01-07T13:25:56;3.92;;;2.28;;
63536;SDS011;49686;51.880;5.632;2024-01-07T13:28:24;4.43;;;2.22;;
63536;SDS011;49686;51.880;5.632;2024-01-07T13:30:51;2.88;;;1.92;;
63536;SDS011;49686;51.880;5.632;2024-01-07T13:33:18;4.97;;;2.50;;
63536;SDS011;49686;51.880;5.632;2024-01-07T13:35:45;5.35;;;2.00;;
63536;SDS011;49686;51.880;5.632;2024-01-07T13:38:12;3.65;;;2.22;;
63536;SDS011;49686;51.880;5.632;2024-01-07T13:40:39;4.00;;;1.90;;
63536;SDS011;49686;51.880;5.632;2024-01-07T13:43:06;3.22;;;2.35;;
63536;SDS011;49686;51.880;5.632;2024-01-07T13:45:34;4.28;;;1.85;;
63536;SDS011;49686;51.880;5.632;2024-01-07T13:48:01;2.55;;;1.90;;
63536;SDS011;49686;51.880;5.632;2024-01-07T13:50:28;2.40;;;1.85;;
63536;SDS011;49686;51.880;5.632;2024-01-07T13:52:57;2.67;;;1.50;;
63536;SDS011;49686;51.880;5.632;2024-01-07T13:57:51;2.00;;;1.77;;
63536;SDS011;49686;51.880;5.632;2024-01-07T14:00:18;1.50;;;1.40;;
63536;SDS011;49686;51.880;5.632;2024-01-07T14:02:47;3.67;;;1.80;;
63536;SDS011;49686;51.880;5.632;2024-01-07T14:05:14;2.95;;;1.85;;
63536;SDS011;49686;51.880;5.632;2024-01-07T14:07:41;3.17;;;1.95;;
63536;SDS011;49686;51.880;5.632;2024-01-07T14:10:08;3.33;;;1.88;;
63536;SDS011;49686;51.880;5.632;2024-01-07T14:12:35;2.70;;;1.90;;
63536;SDS011;49686;51.880;5.632;2024-01-07T14:15:03;2.47;;;1.80;;
63536;SDS011;49686;51.880;5.632;2024-01-07T14:17:30;3.17;;;1.60;;
63536;SDS011;49686;51.880;5.632;2024-01-07T14:19:58;3.38;;;1.80;;
63536;SDS011;49686;51.880;5.632;2024-01-07T14:22:25;1.48;;;1.30;;
63536;SDS011;49686;51.880;5.632;2024-01-07T14:24:52;1.95;;;1.50;;
63536;SDS011;49686;51.880;5.632;2024-01-07T14:27:19;2.03;;;1.40;;
63536;SDS011;49686;51.880;5.632;2024-01-07T14:29:46;3.15;;;1.83;;
63536;SDS011;49686;51.880;5.632;2024-01-07T14:32:13;4.68;;;2.15;;
63536;SDS011;49686;51.880;5.632;2024-01-07T14:34:40;2.65;;;1.70;;
63536;SDS011;49686;51.880;5.632;2024-01-07T14:37:09;3.00;;;1.60;;